Time;durP1;ratioP1;P1;durP2;ratioP2;P2;SDS_P1;SDS_P2;PMS_P1;PMS_P2;Temp;Humidity;BMP_temperature;BMP_pressure;BME280_temperature;BME280_humidity;BME280_pressure;Samples;Min_cycle;Max_cycle;Signal;HPM_P1;HPM_P2
2021/09/23 00:01:17;;;;;;;;;;;;;;;7.71;77.86;100975.94;1389138;89;20333;-90
2021/09/23 00:04:32;;;;;;;;;;;;;;;7.73;77.50;100972.72;1387886;89;20333;-89
2021/09/23 00:06:13;;;;;;;;;;;;;;;7.74;77.08;100973.08;1370433;89;20245;-91
2021/09/23 00:08:40;;;;;;;;;;;;;;;7.76;76.75;100973.81;1383412;88;20734;-91
2021/09/23 00:11:07;;;;;;;;;;;;;;;7.79;76.46;100973.09;1378317;90;20365;-91
2021/09/23 00:13:35;;;;;;;;;;;;;;;7.78;75.20;100969.27;1376720;90;20340;-90
2021/09/23 00:16:02;;;;;;;;;;;;;;;7.81;76.09;100966.40;1379596;89;21127;-92
2021/09/23 00:18:31;;;;;;;;;;;;;;;7.85;76.04;100967.84;1381385;88;20273;-89
2021/09/23 00:21:02;;;;;;;;;;;;;;;7.86;75.94;100968.22;1378205;90;21240;-91
2021/09/23 00:23:29;;;;;;;;;;;;;;;7.86;75.85;100968.22;1380000;90;20298;-90
2021/09/23 00:25:56;;;;;;;;;;;;;;;7.85;75.61;100967.84;1378680;88;20304;-90
2021/09/23 00:28:25;;;;;;;;;;;;;;;7.78;75.34;100972.74;1383837;88;20786;-90
2021/09/23 00:31:01;;;;;;;;;;;;;;;7.74;75.24;100961.22;1385257;88;21251;-91
2021/09/23 00:33:41;;;;;;;;;;;;;;;7.67;75.20;100964.32;1387398;89;20808;-92
2021/09/23 00:36:19;;;;;;;;;;;;;;;7.61;75.18;100966.11;1387741;89;20366;-92
2021/09/23 00:38:57;;;;;;;;;;;;;;;7.54;75.43;100958.31;1390170;88;20288;-92
2021/09/23 00:41:27;;;;;;;;;;;;;;;7.47;75.51;100961.03;1372693;90;20769;-89
2021/09/23 00:43:55;;;;;;;;;;;;;;;7.39;75.46;100968.66;1380186;89;20240;-89
2021/09/23 00:46:23;;;;;;;;;;;;;;;7.30;75.49;100966.71;1386437;89;20946;-89
2021/09/23 00:48:51;;;;;;;;;;;;;;;7.20;76.30;100960.81;1386746;89;20843;-89
2021/09/23 00:51:18;;;;;;;;;;;;;;;7.10;76.46;100962.42;1386930;89;20315;-89
2021/09/23 00:53:53;;;;;;;;;;;;;;;7.03;76.56;100961.69;1385847;89;20802;-88
2021/09/23 00:56:20;;;;;;;;;;;;;;;6.97;76.64;100962.97;1380395;89;20351;-89
2021/09/23 00:58:53;;;;;;;;;;;;;;;6.92;76.69;100963.29;1377000;89;20852;-89
2021/09/23 01:01:20;;;;;;;;;;;;;;;6.85;77.10;100969.09;1374908;89;20234;-89
2021/09/23 01:03:47;;;;;;;;;;;;;;;6.78;77.13;100965.59;1378243;89;20740;-89
2021/09/23 01:06:21;;;;;;;;;;;;;;;6.75;77.62;100961.03;1381971;89;20917;-88
2021/09/23 01:08:57;;;;;;;;;;;;;;;6.73;77.18;100966.42;1364807;90;20724;-89
2021/09/23 01:11:27;;;;;;;;;;;;;;;6.72;77.39;100958.14;1384062;89;20225;-90
2021/09/23 01:13:55;;;;;;;;;;;;;;;6.73;76.93;100972.13;1365559;90;20248;-90
2021/09/23 01:16:29;;;;;;;;;;;;;;;6.74;76.97;100972.52;1383691;89;20873;-90
2021/09/23 01:18:55;;;;;;;;;;;;;;;6.73;77.17;100974.31;1380542;89;20278;-90
2021/09/23 01:21:23;;;;;;;;;;;;;;;6.67;77.42;100973.89;1369852;90;20242;-92
2021/09/23 01:23:50;;;;;;;;;;;;;;;6.55;77.97;100986.13;1369187;89;20778;-92
2021/09/23 01:26:19;;;;;;;;;;;;;;;6.46;78.51;100982.83;1352213;90;20242;-91
2021/09/23 01:28:54;;;;;;;;;;;;;;;6.43;79.09;100971.21;1369110;90;20249;-90
2021/09/23 01:31:23;;;;;;;;;;;;;;;6.37;79.48;100982.16;1369801;89;20361;-91
2021/09/23 01:33:51;;;;;;;;;;;;;;;6.32;78.14;100978.05;1369768;89;20769;-91
2021/09/23 01:36:20;;;;;;;;;;;;;;;6.30;78.48;100982.59;1369166;89;21235;-91
2021/09/23 01:38:52;;;;;;;;;;;;;;;6.26;78.53;100972.39;1369812;90;21273;-90
2021/09/23 01:41:20;;;;;;;;;;;;;;;6.22;78.47;100970.45;1372944;90;20265;-90
2021/09/23 01:43:47;;;;;;;;;;;;;;;6.22;78.48;100969.14;1370127;89;20747;-89
2021/09/23 01:46:19;;;;;;;;;;;;;;;6.20;78.44;100968.87;1369417;89;20320;-87
2021/09/23 01:48:46;;;;;;;;;;;;;;;6.17;78.26;100969.92;1369293;89;20837;-88
2021/09/23 01:51:14;;;;;;;;;;;;;;;6.15;78.41;100969.17;1369827;89;20754;-88
2021/09/23 01:53:42;;;;;;;;;;;;;;;6.07;79.20;100964.47;1369712;90;21238;-88
2021/09/23 01:56:14;;;;;;;;;;;;;;;6.04;79.55;100962.50;1369381;89;21159;-88
2021/09/23 01:58:42;;;;;;;;;;;;;;;6.01;79.78;100966.66;1369648;90;20316;-89
2021/09/23 02:01:09;;;;;;;;;;;;;;;6.00;79.32;100961.05;1369759;90;20973;-89
2021/09/23 02:03:35;;;;;;;;;;;;;;;5.96;79.96;100959.59;1369196;89;20747;-90
2021/09/23 02:06:02;;;;;;;;;;;;;;;5.98;79.03;100960.30;1350933;90;20946;-90
2021/09/23 02:08:30;;;;;;;;;;;;;;;5.95;79.98;100964.45;1369399;89;20869;-89
2021/09/23 02:10:57;;;;;;;;;;;;;;;5.95;79.27;100955.25;1351442;90;20875;-89
2021/09/23 02:13:25;;;;;;;;;;;;;;;5.95;80.59;100956.09;1369208;89;20841;-89
2021/09/23 02:15:52;;;;;;;;;;;;;;;5.95;80.43;100951.31;1369638;89;20869;-89
2021/09/23 02:18:19;;;;;;;;;;;;;;;5.95;80.93;100950.83;1369535;89;20980;-90
2021/09/23 02:20:46;;;;;;;;;;;;;;;5.98;80.71;100957.67;1376165;89;20954;-89
2021/09/23 02:23:13;;;;;;;;;;;;;;;5.97;82.56;100956.84;1362395;91;20330;-88
2021/09/23 02:25:40;;;;;;;;;;;;;;;5.99;82.15;100958.89;1371539;89;20265;-89
2021/09/23 02:28:08;;;;;;;;;;;;;;;6.02;81.76;100955.22;1357916;91;20243;-89
2021/09/23 02:30:38;;;;;;;;;;;;;;;6.06;81.47;100959.30;1358344;91;20305;-88
2021/09/23 02:33:05;;;;;;;;;;;;;;;6.12;82.43;100958.87;1344424;92;21155;-88
2021/09/23 02:35:37;;;;;;;;;;;;;;;6.20;81.87;100955.25;1358541;91;20832;-88
2021/09/23 02:38:05;;;;;;;;;;;;;;;6.26;82.10;100955.30;1344386;92;21110;-88
2021/09/23 02:40:32;;;;;;;;;;;;;;;6.31;82.22;100957.97;1358912;91;21209;-87
2021/09/23 02:42:59;;;;;;;;;;;;;;;6.40;82.63;100955.66;1358673;91;20303;-88
2021/09/23 02:45:27;;;;;;;;;;;;;;;6.47;82.17;100959.52;1358791;91;20824;-89
2021/09/23 02:48:00;;;;;;;;;;;;;;;6.58;81.40;100960.92;1358961;91;20828;-89
2021/09/23 02:50:28;;;;;;;;;;;;;;;6.70;80.90;100969.27;1358868;91;20295;-89
2021/09/23 02:52:54;;;;;;;;;;;;;;;6.84;80.68;100968.74;1358813;91;20340;-89
2021/09/23 02:55:23;;;;;;;;;;;;;;;6.90;81.32;100970.92;1344517;92;20318;-92
2021/09/23 02:57:52;;;;;;;;;;;;;;;6.95;80.70;100966.18;1359177;91;20394;-91
2021/09/23 03:00:19;;;;;;;;;;;;;;;6.98;80.67;100967.27;1358772;91;20274;-91
2021/09/23 03:02:47;;;;;;;;;;;;;;;7.02;80.72;100968.75;1358888;91;20251;-89
2021/09/23 03:05:14;;;;;;;;;;;;;;;7.10;80.27;100962.91;1358786;91;20258;-89
2021/09/23 03:07:41;;;;;;;;;;;;;;;7.17;80.35;100957.57;1358578;91;21169;-90
2021/09/23 03:10:13;;;;;;;;;;;;;;;7.23;80.16;100961.90;1358758;91;20333;-90
2021/09/23 03:12:40;;;;;;;;;;;;;;;7.28;79.97;100955.44;1358621;91;20779;-89
2021/09/23 03:15:08;;;;;;;;;;;;;;;7.33;79.87;100961.22;1359519;91;21269;-89
2021/09/23 03:17:35;;;;;;;;;;;;;;;7.40;79.81;100961.14;1358768;91;20329;-89
2021/09/23 03:20:03;;;;;;;;;;;;;;;7.48;79.41;100957.91;1355821;91;20251;-88
2021/09/23 03:22:30;;;;;;;;;;;;;;;7.55;79.21;100958.67;1352546;90;20348;-88
2021/09/23 03:24:57;;;;;;;;;;;;;;;7.63;78.85;100954.15;1351214;91;20251;-88
2021/09/23 03:27:24;;;;;;;;;;;;;;;7.72;78.74;100952.61;1352167;91;20772;-89
2021/09/23 03:29:52;;;;;;;;;;;;;;;7.78;78.44;100958.73;1351181;91;20251;-88
2021/09/23 03:32:21;;;;;;;;;;;;;;;7.80;77.97;100958.98;1351403;90;20832;-89
2021/09/23 03:34:48;;;;;;;;;;;;;;;7.78;77.41;100956.09;1351249;91;20760;-89
2021/09/23 03:37:15;;;;;;;;;;;;;;;7.78;77.58;100961.36;1351124;90;20762;-89
2021/09/23 03:39:42;;;;;;;;;;;;;;;7.77;77.51;100955.27;1351486;90;20336;-88
2021/09/23 03:42:09;;;;;;;;;;;;;;;7.75;77.42;100957.65;1351142;91;20862;-88
2021/09/23 03:44:36;;;;;;;;;;;;;;;7.69;77.30;100949.25;1352112;91;20868;-91
2021/09/23 03:47:03;;;;;;;;;;;;;;;7.64;77.45;100947.91;1351536;91;20259;-89
2021/09/23 03:49:31;;;;;;;;;;;;;;;7.59;78.31;100946.09;1351387;91;21055;-90
2021/09/23 04:10:13;;;;;;;;;;;;;;;7.33;78.24;100958.58;1399546;86;20422;31
2021/09/23 04:15:43;;;;;;;;;;;;;;;7.39;78.36;100955.04;1410739;85;20463;31
2021/09/23 04:18:09;;;;;;;;;;;;;;;7.38;78.22;100952.02;1411452;85;23332;-90
2021/09/23 04:20:37;;;;;;;;;;;;;;;7.39;78.12;100939.69;1368404;90;20288;-90
2021/09/23 04:23:17;;;;;;;;;;;;;;;7.39;78.06;100939.69;1399082;88;20243;-92
2021/09/23 04:25:44;;;;;;;;;;;;;;;7.42;77.91;100942.09;1399285;88;20251;-92
2021/09/23 04:28:11;;;;;;;;;;;;;;;7.43;78.26;100929.30;1398468;88;20243;-91
2021/09/23 04:30:38;;;;;;;;;;;;;;;7.44;77.89;100933.13;1397641;88;20354;-90
2021/09/23 04:33:06;;;;;;;;;;;;;;;7.50;78.32;100933.14;1398159;88;20302;-90
2021/09/23 04:35:33;;;;;;;;;;;;;;;7.48;78.71;100933.75;1398005;88;20258;-91
2021/09/23 04:38:00;;;;;;;;;;;;;;;7.42;78.82;100942.95;1398147;88;20830;-90
2021/09/23 04:40:36;;;;;;;;;;;;;;;7.41;78.76;100932.52;1398135;88;20793;-91
2021/09/23 04:43:03;;;;;;;;;;;;;;;7.39;78.83;100932.66;1398526;88;20793;-88
2021/09/23 04:45:30;;;;;;;;;;;;;;;7.38;79.48;100932.75;1398477;88;21102;-90
2021/09/23 04:47:57;;;;;;;;;;;;;;;7.35;78.96;100932.98;1398279;88;20748;-91
2021/09/23 04:50:26;;;;;;;;;;;;;;;7.41;78.67;100929.89;1398725;88;20778;-92
2021/09/23 04:52:54;;;;;;;;;;;;;;;7.45;79.28;100924.29;1398605;88;20339;-93
2021/09/23 04:55:21;;;;;;;;;;;;;;;7.52;78.92;100923.34;1400539;87;20837;-94
2021/09/23 04:57:48;;;;;;;;;;;;;;;7.61;79.05;100926.59;1400018;88;20235;-93
2021/09/23 05:00:18;;;;;;;;;;;;;;;7.73;78.80;100918.71;1400022;88;20221;-93
2021/09/23 05:02:47;;;;;;;;;;;;;;;7.86;78.71;100922.09;1401288;88;20383;-93
2021/09/23 05:05:15;;;;;;;;;;;;;;;7.99;78.49;100918.86;1400383;90;20250;-93
2021/09/23 05:07:42;;;;;;;;;;;;;;;8.12;78.47;100918.27;1392793;88;20342;-93
2021/09/23 05:10:09;;;;;;;;;;;;;;;8.26;78.28;100929.55;1380654;89;20811;-93
2021/09/23 05:12:37;;;;;;;;;;;;;;;8.37;77.45;100932.16;1380802;89;20298;-92
2021/09/23 05:15:04;;;;;;;;;;;;;;;8.43;77.11;100929.09;1381124;89;20736;-94
2021/09/23 05:17:32;;;;;;;;;;;;;;;8.60;77.14;100936.95;1380324;89;20245;-92
2021/09/23 05:19:59;;;;;;;;;;;;;;;8.78;77.15;100936.82;1385062;89;20245;-93
2021/09/23 05:22:29;;;;;;;;;;;;;;;8.95;76.76;100938.10;1367620;88;20230;-93
2021/09/23 05:24:56;;;;;;;;;;;;;;;9.18;76.81;100940.67;1385474;89;20329;-94
2021/09/23 05:27:24;;;;;;;;;;;;;;;9.37;75.58;100951.38;1386826;89;21274;-94
2021/09/23 05:29:51;;;;;;;;;;;;;;;9.52;75.10;100945.78;1385876;89;20230;-93
2021/09/23 05:32:18;;;;;;;;;;;;;;;9.69;74.76;100954.45;1386174;88;20236;-93
2021/09/23 05:34:48;;;;;;;;;;;;;;;9.85;74.45;100952.69;1386342;89;20223;-93
2021/09/23 05:37:15;;;;;;;;;;;;;;;9.97;73.37;100962.70;1387199;89;21343;-93
2021/09/23 05:39:42;;;;;;;;;;;;;;;10.03;71.92;100967.47;1386818;89;20386;-93
2021/09/23 05:42:09;;;;;;;;;;;;;;;10.08;73.00;100956.85;1367370;91;20821;-92
2021/09/23 05:44:36;;;;;;;;;;;;;;;10.11;72.55;100958.40;1386972;89;20285;-94
2021/09/23 05:47:03;;;;;;;;;;;;;;;10.15;72.57;100961.12;1386576;89;21064;-93
2021/09/23 05:49:30;;;;;;;;;;;;;;;10.17;72.20;100966.63;1387813;88;20750;-92
2021/09/23 05:51:59;;;;;;;;;;;;;;;10.19;72.50;100963.04;1387246;89;20334;-93
2021/09/23 05:54:26;;;;;;;;;;;;;;;10.22;71.34;100970.71;1387080;89;20393;-93
2021/09/23 05:57:09;;;;;;;;;;;;;;;10.25;72.43;100972.59;1368312;91;20266;-93
2021/09/23 05:59:38;;;;;;;;;;;;;;;10.27;72.53;100978.64;1392659;89;20238;-93
2021/09/23 06:02:07;;;;;;;;;;;;;;;10.31;72.43;100972.59;1403790;89;20793;-91
2021/09/23 06:04:33;;;;;;;;;;;;;;;10.30;72.78;100970.44;1404970;87;20807;-92
2021/09/23 06:07:23;;;;;;;;;;;;;;;10.37;72.41;100960.98;1405106;87;20756;-93
2021/09/23 06:09:50;;;;;;;;;;;;;;;10.39;71.88;100961.70;1405028;87;20331;-92
2021/09/23 06:12:17;;;;;;;;;;;;;;;10.46;72.18;100963.80;1404941;87;21229;-94
2021/09/23 06:14:46;;;;;;;;;;;;;;;10.51;71.64;100964.24;1405301;87;20868;-92
2021/09/23 06:17:14;;;;;;;;;;;;;;;10.60;72.09;100954.17;1404810;87;20376;-92
2021/09/23 06:19:41;;;;;;;;;;;;;;;10.68;71.03;100956.98;1405152;87;20243;-92
2021/09/23 06:22:08;;;;;;;;;;;;;;;10.78;72.09;100959.15;1404931;87;20369;-93
2021/09/23 06:24:35;;;;;;;;;;;;;;;10.91;72.05;100959.41;1404642;87;20361;-92
2021/09/23 06:27:02;;;;;;;;;;;;;;;10.95;70.55;100963.45;1406594;87;20316;-90
2021/09/23 06:29:29;;;;;;;;;;;;;;;10.99;71.18;100965.70;1408587;87;20264;-92
2021/09/23 06:31:56;;;;;;;;;;;;;;;11.06;71.09;100973.92;1405731;87;20762;-92
2021/09/23 06:34:23;;;;;;;;;;;;;;;11.09;69.84;100978.94;1405690;87;20271;-92
2021/09/23 06:36:50;;;;;;;;;;;;;;;11.11;69.78;100986.27;1404687;87;20837;-92
2021/09/23 06:39:17;;;;;;;;;;;;;;;11.12;69.44;100988.42;1405074;87;20903;-92
2021/09/23 06:41:44;;;;;;;;;;;;;;;11.18;70.30;100993.17;1405073;87;20799;-92
2021/09/23 06:44:12;;;;;;;;;;;;;;;11.25;69.97;100995.64;1404753;87;21209;-91
2021/09/23 06:46:39;;;;;;;;;;;;;;;11.38;70.65;100994.03;1404544;87;20228;-92
2021/09/23 06:49:07;;;;;;;;;;;;;;;11.51;70.54;100991.45;1404792;87;20220;-92
2021/09/23 06:51:34;;;;;;;;;;;;;;;11.61;69.21;100987.46;1404873;87;20273;-93
2021/09/23 06:54:01;;;;;;;;;;;;;;;11.69;67.96;100991.58;1405440;87;20779;-91
2021/09/23 06:56:28;;;;;;;;;;;;;;;11.78;69.11;100994.36;1386108;89;20793;-92
2021/09/23 06:58:55;;;;;;;;;;;;;;;11.80;67.99;100989.27;1404916;87;20325;-92
2021/09/23 07:01:22;;;;;;;;;;;;;;;11.85;68.14;100999.44;1404828;87;20294;-92
2021/09/23 07:03:49;;;;;;;;;;;;;;;11.98;68.80;100990.73;1404854;87;20320;-92
2021/09/23 07:06:16;;;;;;;;;;;;;;;12.06;68.51;100994.00;1404679;87;20912;-90
2021/09/23 07:08:43;;;;;;;;;;;;;;;12.19;67.50;100989.20;1405056;87;20368;-91
2021/09/23 07:11:10;;;;;;;;;;;;;;;12.32;67.27;100983.59;1404934;87;20945;-91
2021/09/23 07:13:37;;;;;;;;;;;;;;;12.48;68.75;100984.28;1404190;87;20846;-91
2021/09/23 07:16:04;;;;;;;;;;;;;;;12.68;68.05;100983.70;1404217;87;20250;-91
2021/09/23 07:18:31;;;;;;;;;;;;;;;12.66;64.45;100979.87;1404868;87;20385;-91
2021/09/23 07:20:58;;;;;;;;;;;;;;;12.78;66.13;100984.50;1405793;87;20392;-91
2021/09/23 07:23:27;;;;;;;;;;;;;;;12.80;65.47;100975.40;1404811;87;20786;-91
2021/09/23 07:25:54;;;;;;;;;;;;;;;12.92;66.83;100972.51;1404255;87;20242;-91
2021/09/23 07:28:21;;;;;;;;;;;;;;;13.06;66.61;100966.21;1404521;87;21212;-92
2021/09/23 07:30:48;;;;;;;;;;;;;;;13.18;66.30;100973.97;1404326;87;20280;-90
2021/09/23 07:33:15;;;;;;;;;;;;;;;13.26;64.83;100975.38;1405504;87;20309;-90
2021/09/23 07:35:42;;;;;;;;;;;;;;;13.33;63.52;100977.79;1404327;87;20263;-91
2021/09/23 07:38:09;;;;;;;;;;;;;;;13.37;64.02;100965.85;1404521;87;20243;-91
2021/09/23 07:40:36;;;;;;;;;;;;;;;13.48;64.99;100965.62;1404344;87;20287;-91
2021/09/23 07:43:04;;;;;;;;;;;;;;;13.59;64.93;100964.55;1385117;89;20894;-90
2021/09/23 07:45:31;;;;;;;;;;;;;;;13.68;62.35;100956.14;1402267;89;20317;-91
2021/09/23 07:47:58;;;;;;;;;;;;;;;13.70;62.10;100967.47;1403881;87;20227;-91
2021/09/23 07:50:31;;;;;;;;;;;;;;;13.68;60.05;100973.42;1404590;87;20748;-92
2021/09/23 07:52:59;;;;;;;;;;;;;;;13.75;60.97;100978.45;1403695;87;20301;-92
2021/09/23 07:55:26;;;;;;;;;;;;;;;13.86;61.20;100978.20;1404187;87;20793;-91
2021/09/23 07:57:53;;;;;;;;;;;;;;;13.81;59.14;100961.90;1404308;87;20786;-91
2021/09/23 08:00:20;;;;;;;;;;;;;;;13.72;59.63;100962.34;1404129;87;20756;-91
2021/09/23 08:02:47;;;;;;;;;;;;;;;13.70;59.71;100954.17;1404622;87;20249;-91
2021/09/23 08:05:15;;;;;;;;;;;;;;;13.78;60.57;100951.54;1404881;87;20235;-91
2021/09/23 08:07:46;;;;;;;;;;;;;;;13.90;60.97;100942.33;1404872;87;21249;-90
2021/09/23 08:10:13;;;;;;;;;;;;;;;14.05;59.91;100945.75;1400894;87;20376;-91
2021/09/23 08:12:41;;;;;;;;;;;;;;;14.14;58.44;100946.95;1405279;87;20313;-90
2021/09/23 08:15:10;;;;;;;;;;;;;;;14.23;59.01;100946.50;1404508;87;20711;-90
2021/09/23 08:17:37;;;;;;;;;;;;;;;14.22;57.37;100952.83;1404465;87;20227;-90
2021/09/23 08:20:05;;;;;;;;;;;;;;;14.16;56.20;100954.80;1403554;87;20873;-89
2021/09/23 08:22:32;;;;;;;;;;;;;;;14.17;55.92;100961.78;1398719;88;20343;-91
2021/09/23 08:25:03;;;;;;;;;;;;;;;14.12;55.73;100956.91;1397988;88;20243;-90
2021/09/23 08:27:30;;;;;;;;;;;;;;;14.15;57.08;100960.59;1398299;88;20228;-90
2021/09/23 08:29:57;;;;;;;;;;;;;;;14.22;57.44;100955.48;1398300;88;20778;-90
2021/09/23 08:32:24;;;;;;;;;;;;;;;14.22;57.53;100957.66;1397752;88;20273;-91
2021/09/23 08:34:55;;;;;;;;;;;;;;;14.25;54.88;100963.66;1398295;88;20250;-92
2021/09/23 08:37:22;;;;;;;;;;;;;;;14.39;57.83;100963.89;1398004;88;20235;-91
2021/09/23 08:39:49;;;;;;;;;;;;;;;14.50;55.67;100965.45;1398520;88;20228;-91
2021/09/23 08:42:17;;;;;;;;;;;;;;;14.55;55.41;100970.31;1397946;88;20733;-91
2021/09/23 08:44:45;;;;;;;;;;;;;;;14.43;54.64;100967.89;1398124;88;20841;-91
2021/09/23 08:47:11;;;;;;;;;;;;;;;14.39;54.78;100962.56;1400666;88;20769;-91
2021/09/23 08:49:41;;;;;;;;;;;;;;;14.49;55.14;100954.94;1400335;88;20347;-91
2021/09/23 08:52:09;;;;;;;;;;;;;;;14.56;55.43;100956.02;1398423;88;20227;-91
2021/09/23 08:54:35;;;;;;;;;;;;;;;14.72;56.05;100949.89;1397471;88;20242;-91
2021/09/23 08:57:03;;;;;;;;;;;;;;;14.82;55.98;100947.94;1398856;88;20845;-91
2021/09/23 08:59:30;;;;;;;;;;;;;;;14.82;53.33;100936.78;1398036;88;20756;-91
2021/09/23 09:02:05;;;;;;;;;;;;;;;14.80;52.97;100940.09;1398540;88;20229;-92
2021/09/23 09:04:33;;;;;;;;;;;;;;;14.80;52.43;100929.44;1383589;89;20302;-91
2021/09/23 09:07:03;;;;;;;;;;;;;;;14.83;52.06;100939.77;1399357;88;20229;-91
2021/09/23 09:09:30;;;;;;;;;;;;;;;14.94;52.71;100937.80;1398831;88;20302;-91
2021/09/23 09:11:57;;;;;;;;;;;;;;;14.97;52.17;100936.14;1398881;88;20756;-90
2021/09/23 09:16:57;;;;;;;;;;;;;;;15.09;51.94;100925.49;1383316;90;20276;31
2021/09/23 09:19:28;;;;;;;;;;;;;;;15.26;52.19;100928.50;1389902;86;20374;31
2021/09/23 09:21:58;;;;;;;;;;;;;;;15.52;51.30;100928.84;1365285;87;20355;31
2021/09/23 09:24:29;;;;;;;;;;;;;;;15.82;52.95;100931.83;1394799;86;20274;-95
2021/09/23 09:29:29;;;;;;;;;;;;;;;16.18;48.67;100926.91;1419864;85;20925;31
2021/09/23 09:31:58;;;;;;;;;;;;;;;16.19;50.30;100915.22;1378360;84;20315;31
2021/09/23 09:34:33;;;;;;;;;;;;;;;16.30;49.88;100914.84;1379644;84;20255;31
2021/09/23 09:37:02;;;;;;;;;;;;;;;16.43;48.78;100930.33;1411124;86;20297;31
2021/09/23 09:39:34;;;;;;;;;;;;;;;16.43;47.36;100919.65;1404361;85;20451;31
2021/09/23 09:42:02;;;;;;;;;;;;;;;16.55;49.03;100920.92;1402179;85;20257;-94
2021/09/23 09:47:01;;;;;;;;;;;;;;;16.67;46.90;100913.34;1410153;86;20457;-84
2021/09/23 09:49:30;;;;;;;;;;;;;;;16.60;46.87;100910.55;1407824;86;20208;-88
2021/09/23 09:54:34;;;;;;;;;;;;;;;16.82;45.41;100902.24;1388807;86;21061;31
2021/09/23 09:57:06;;;;;;;;;;;;;;;16.83;46.03;100899.06;1378315;87;20517;-94
2021/09/23 09:59:34;;;;;;;;;;;;;;;16.86;46.62;100899.56;1369851;86;20284;-92
2021/09/23 10:02:03;;;;;;;;;;;;;;;16.91;44.70;100904.36;1353517;92;20325;-94
2021/09/23 10:04:34;;;;;;;;;;;;;;;16.98;46.10;100894.63;1349682;92;20275;-92
2021/09/23 10:07:06;;;;;;;;;;;;;;;16.95;45.00;100882.95;1351008;92;20283;-93
2021/09/23 10:09:35;;;;;;;;;;;;;;;17.13;46.07;100884.81;1349848;92;20735;-93
2021/09/23 10:12:02;;;;;;;;;;;;;;;17.31;44.57;100880.99;1338249;92;20237;-93
2021/09/23 10:14:30;;;;;;;;;;;;;;;17.43;44.69;100876.86;1349564;92;20367;-91
2021/09/23 10:16:57;;;;;;;;;;;;;;;17.43;43.62;100876.03;1349430;92;20728;-92
2021/09/23 10:19:24;;;;;;;;;;;;;;;17.48;42.11;100879.83;1349370;92;20780;-93
2021/09/23 10:21:53;;;;;;;;;;;;;;;17.48;42.60;100874.98;1348688;92;20230;-93
2021/09/23 10:24:20;;;;;;;;;;;;;;;17.56;42.25;100866.38;1348701;92;20870;-91
2021/09/23 10:26:49;;;;;;;;;;;;;;;17.76;44.62;100865.84;1349700;91;20236;-91
2021/09/23 10:29:17;;;;;;;;;;;;;;;17.89;42.32;100862.55;1334036;93;20244;-91
2021/09/23 10:31:46;;;;;;;;;;;;;;;17.77;40.26;100862.14;1348277;92;21075;-91
2021/09/23 10:34:13;;;;;;;;;;;;;;;17.80;41.45;100852.44;1348795;92;20244;-93
2021/09/23 10:36:42;;;;;;;;;;;;;;;17.92;40.36;100846.11;1349420;92;20766;-92
2021/09/23 10:39:10;;;;;;;;;;;;;;;18.08;41.25;100837.05;1347735;93;20252;-92
2021/09/23 10:41:44;;;;;;;;;;;;;;;18.29;41.37;100834.42;1346677;92;20201;-93
2021/09/23 10:44:12;;;;;;;;;;;;;;;18.51;40.42;100835.30;1334531;93;20898;-93
2021/09/23 10:46:40;;;;;;;;;;;;;;;18.59;39.24;100832.50;1346354;91;20706;-94
2021/09/23 10:49:07;;;;;;;;;;;;;;;18.61;38.77;100833.63;1333901;93;20258;-92
2021/09/23 10:51:35;;;;;;;;;;;;;;;18.70;39.79;100833.83;1346807;92;20266;-95
2021/09/23 10:54:05;;;;;;;;;;;;;;;18.89;40.98;100826.52;1347507;91;20334;-96
2021/09/23 10:56:34;;;;;;;;;;;;;;;19.04;38.98;100827.78;1347343;92;20252;-95
2021/09/23 10:59:04;;;;;;;;;;;;;;;18.97;36.08;100832.27;1347365;92;20326;-95
2021/09/23 11:01:36;;;;;;;;;;;;;;;19.00;37.49;100831.06;1348928;91;20378;-94
2021/09/23 11:04:06;;;;;;;;;;;;;;;18.91;37.16;100835.22;1350266;91;20355;-94
2021/09/23 11:06:37;;;;;;;;;;;;;;;18.92;37.82;100850.27;1324207;94;20193;-94
2021/09/23 11:09:19;;;;;;;;;;;;;;;19.01;36.25;100848.80;1376004;87;20317;-96
2021/09/23 11:11:54;;;;;;;;;;;;;;;19.11;38.62;100843.95;1367917;89;20257;-93
2021/09/23 11:14:25;;;;;;;;;;;;;;;19.43;36.96;100832.33;1364643;92;20364;-96
2021/09/23 11:16:56;;;;;;;;;;;;;;;19.35;35.24;100834.13;1370733;90;20242;-96
2021/09/23 11:19:34;;;;;;;;;;;;;;;19.46;35.84;100838.65;1371919;90;20239;-95
2021/09/23 11:22:03;;;;;;;;;;;;;;;19.65;36.91;100842.02;1370970;90;20763;-96
2021/09/23 11:24:32;;;;;;;;;;;;;;;19.75;35.85;100833.59;1357706;90;20263;-95
2021/09/23 11:26:59;;;;;;;;;;;;;;;19.75;34.04;100826.87;1368067;90;20191;-95
2021/09/23 11:29:28;;;;;;;;;;;;;;;19.82;34.08;100815.16;1367378;91;20866;-94
2021/09/23 11:32:00;;;;;;;;;;;;;;;19.98;34.99;100818.53;1367956;90;20273;-95
2021/09/23 11:34:36;;;;;;;;;;;;;;;19.95;32.69;100813.55;1369000;90;20227;-95
2021/09/23 11:37:12;;;;;;;;;;;;;;;20.19;34.29;100813.02;1368416;90;20190;-95
2021/09/23 11:39:43;;;;;;;;;;;;;;;20.35;33.27;100813.70;1368864;90;20191;-96
2021/09/23 11:42:13;;;;;;;;;;;;;;;20.44;33.87;100811.14;1391983;88;20228;-96
2021/09/23 11:44:42;;;;;;;;;;;;;;;20.26;33.54;100819.26;1401608;88;20865;-94
2021/09/23 11:47:14;;;;;;;;;;;;;;;19.95;34.29;100821.61;1398188;88;20831;-96
2021/09/23 11:49:43;;;;;;;;;;;;;;;19.55;34.96;100826.20;1398510;88;20327;-96
2021/09/23 11:52:11;;;;;;;;;;;;;;;19.28;35.03;100823.87;1398352;88;20198;-94
2021/09/23 11:54:41;;;;;;;;;;;;;;;19.18;36.95;100826.05;1388365;88;20828;-95
2021/09/23 11:57:15;;;;;;;;;;;;;;;18.98;34.70;100825.05;1387440;89;20346;-94
2021/09/23 11:59:46;;;;;;;;;;;;;;;18.83;35.82;100827.81;1381241;90;20266;-95
2021/09/23 12:02:17;;;;;;;;;;;;;;;18.83;37.38;100819.25;1383869;89;20354;-93
2021/09/23 12:04:56;;;;;;;;;;;;;;;18.91;34.89;100812.42;1384685;88;20267;-95
2021/09/23 12:07:23;;;;;;;;;;;;;;;19.16;37.01;100804.80;1379534;88;20772;-95
2021/09/23 12:10:07;;;;;;;;;;;;;;;19.52;35.42;100789.02;1379225;89;20363;-95
2021/09/23 12:12:35;;;;;;;;;;;;;;;19.86;35.64;100783.87;1384927;89;20270;-96
2021/09/23 12:15:06;;;;;;;;;;;;;;;20.05;34.49;100777.72;1379123;89;20772;-96
2021/09/23 12:17:34;;;;;;;;;;;;;;;20.42;32.65;100777.73;1376695;87;20889;-96
2021/09/23 12:20:01;;;;;;;;;;;;;;;20.71;33.09;100778.42;1350503;92;20185;-95
2021/09/23 12:22:47;;;;;;;;;;;;;;;21.11;31.02;100765.79;1350287;91;20347;-96
2021/09/23 12:27:50;;;;;;;;;;;;;;;21.88;29.89;100757.96;1399010;89;20239;-96
2021/09/23 12:30:25;;;;;;;;;;;;;;;22.26;31.03;100744.52;1378178;90;20247;-96
2021/09/23 12:32:53;;;;;;;;;;;;;;;22.78;29.83;100732.73;1372531;86;20217;-95
2021/09/23 12:35:21;;;;;;;;;;;;;;;23.17;29.61;100732.94;1372982;91;20256;-96
2021/09/23 12:37:49;;;;;;;;;;;;;;;23.35;27.63;100724.83;1384472;88;20982;-96
2021/09/23 12:40:19;;;;;;;;;;;;;;;23.65;27.33;100710.05;1406266;88;20228;-95
2021/09/23 12:42:45;;;;;;;;;;;;;;;23.76;29.39;100699.02;1391078;89;21311;-95
2021/09/23 12:45:15;;;;;;;;;;;;;;;24.01;28.54;100691.31;1371185;91;20252;-94
2021/09/23 12:47:48;;;;;;;;;;;;;;;24.30;29.07;100701.80;1422329;86;20293;-96
2021/09/23 12:50:16;;;;;;;;;;;;;;;24.60;27.71;100685.54;1416386;87;20229;-96
2021/09/23 12:52:45;;;;;;;;;;;;;;;24.29;25.80;100680.69;1403399;87;20311;-95
2021/09/23 12:55:18;;;;;;;;;;;;;;;24.00;27.15;100674.27;1374046;90;20832;-95
2021/09/23 12:57:56;;;;;;;;;;;;;;;23.55;27.53;100677.86;1378153;90;20266;-96
2021/09/23 13:00:35;;;;;;;;;;;;;;;22.84;28.67;100687.33;1373086;90;20186;-94
2021/09/23 13:03:08;;;;;;;;;;;;;;;21.90;27.59;100692.57;1372569;90;20281;-96
2021/09/23 13:05:37;;;;;;;;;;;;;;;21.88;29.54;100687.91;1373902;90;20260;-95
2021/09/23 13:08:27;;;;;;;;;;;;;;;21.87;29.94;100686.27;1371785;90;20334;-96
2021/09/23 13:11:08;;;;;;;;;;;;;;;21.88;30.15;100686.56;1378004;90;20210;-96
2021/09/23 13:13:35;;;;;;;;;;;;;;;21.74;30.13;100670.16;1372533;90;20267;-96
2021/09/23 13:16:09;;;;;;;;;;;;;;;21.54;30.23;100656.27;1358097;93;20736;-96
2021/09/23 13:18:37;;;;;;;;;;;;;;;21.40;30.35;100668.13;1385278;86;20860;-95
2021/09/23 13:21:09;;;;;;;;;;;;;;;21.11;29.87;100666.74;1354557;91;20312;-95
2021/09/23 13:23:41;;;;;;;;;;;;;;;20.98;31.33;100660.89;1358420;92;20275;-96